sensor_id;sensor_type;location;lat;lon;timestamp;temperature;humidity
12309;DHT22;6217;48.150;17.142;2024-03-23T00:52:04;13.20;67.70
12309;DHT22;6217;48.150;17.142;2024-03-23T00:56:10;13.30;67.50
12309;DHT22;6217;48.150;17.142;2024-03-23T01:00:16;13.30;67.40
12309;DHT22;6217;48.150;17.142;2024-03-23T01:04:22;13.30;67.50
12309;DHT22;6217;48.150;17.142;2024-03-23T01:08:28;13.30;67.50
12309;DHT22;6217;48.150;17.142;2024-03-23T01:12:34;13.30;67.50
12309;DHT22;6217;48.150;17.142;2024-03-23T01:16:40;13.20;67.60
12309;DHT22;6217;48.150;17.142;2024-03-23T01:20:46;13.20;67.80
12309;DHT22;6217;48.150;17.142;2024-03-23T01:24:52;13.10;68.00
12309;DHT22;6217;48.150;17.142;2024-03-23T01:28:58;13.10;68.10
12309;DHT22;6217;48.150;17.142;2024-03-23T01:33:04;13.00;68.20
12309;DHT22;6217;48.150;17.142;2024-03-23T01:37:10;13.00;68.50
12309;DHT22;6217;48.150;17.142;2024-03-23T01:41:15;13.00;68.50
12309;DHT22;6217;48.150;17.142;2024-03-23T01:45:21;13.10;68.30
12309;DHT22;6217;48.150;17.142;2024-03-23T01:49:28;13.10;68.10
12309;DHT22;6217;48.150;17.142;2024-03-23T01:53:35;12.90;68.30
12309;DHT22;6217;48.150;17.142;2024-03-23T01:57:41;12.80;68.70
12309;DHT22;6217;48.150;17.142;2024-03-23T02:01:47;12.80;68.80
12309;DHT22;6217;48.150;17.142;2024-03-23T02:05:54;12.70;69.10
12309;DHT22;6217;48.150;17.142;2024-03-23T02:10:01;12.70;69.30
12309;DHT22;6217;48.150;17.142;2024-03-23T02:14:07;12.60;69.30
12309;DHT22;6217;48.150;17.142;2024-03-23T02:18:13;12.60;69.30
12309;DHT22;6217;48.150;17.142;2024-03-23T02:22:19;12.70;69.30
12309;DHT22;6217;48.150;17.142;2024-03-23T02:26:25;12.70;69.30
12309;DHT22;6217;48.150;17.142;2024-03-23T02:30:32;12.80;69.00
12309;DHT22;6217;48.150;17.142;2024-03-23T02:34:37;12.90;69.00
12309;DHT22;6217;48.150;17.142;2024-03-23T02:38:43;13.00;68.70
12309;DHT22;6217;48.150;17.142;2024-03-23T02:42:49;12.90;68.80
12309;DHT22;6217;48.150;17.142;2024-03-23T02:46:55;12.80;69.10
12309;DHT22;6217;48.150;17.142;2024-03-23T02:51:01;12.80;69.20
12309;DHT22;6217;48.150;17.142;2024-03-23T02:55:07;12.80;69.20
12309;DHT22;6217;48.150;17.142;2024-03-23T02:59:13;12.70;69.40
12309;DHT22;6217;48.150;17.142;2024-03-23T03:03:19;12.70;69.50
12309;DHT22;6217;48.150;17.142;2024-03-23T03:07:25;12.60;69.70
12309;DHT22;6217;48.150;17.142;2024-03-23T03:11:31;12.50;70.00
12309;DHT22;6217;48.150;17.142;2024-03-23T03:15:37;12.60;70.30
12309;DHT22;6217;48.150;17.142;2024-03-23T03:19:43;12.60;69.90
12309;DHT22;6217;48.150;17.142;2024-03-23T03:23:49;12.50;70.00
12309;DHT22;6217;48.150;17.142;2024-03-23T03:27:56;12.40;70.30
12309;DHT22;6217;48.150;17.142;2024-03-23T03:32:04;12.40;70.70
12309;DHT22;6217;48.150;17.142;2024-03-23T03:36:11;12.30;71.00
12309;DHT22;6217;48.150;17.142;2024-03-23T03:40:17;12.30;71.00
12309;DHT22;6217;48.150;17.142;2024-03-23T03:44:22;12.20;71.20
12309;DHT22;6217;48.150;17.142;2024-03-23T03:48:28;12.10;71.40
12309;DHT22;6217;48.150;17.142;2024-03-23T03:52:35;12.20;71.40
12309;DHT22;6217;48.150;17.142;2024-03-23T03:56:41;12.20;71.30
12309;DHT22;6217;48.150;17.142;2024-03-23T04:00:46;12.30;71.10
12309;DHT22;6217;48.150;17.142;2024-03-23T04:04:52;12.30;71.10
12309;DHT22;6217;48.150;17.142;2024-03-23T04:08:58;12.30;71.30
12309;DHT22;6217;48.150;17.142;2024-03-23T04:13:04;12.20;71.30
12309;DHT22;6217;48.150;17.142;2024-03-23T04:17:10;12.20;71.50
12309;DHT22;6217;48.150;17.142;2024-03-23T04:21:16;12.10;71.70
12309;DHT22;6217;48.150;17.142;2024-03-23T04:25:22;12.10;71.80
12309;DHT22;6217;48.150;17.142;2024-03-23T04:29:28;12.00;72.00
12309;DHT22;6217;48.150;17.142;2024-03-23T04:33:34;11.90;72.20
12309;DHT22;6217;48.150;17.142;2024-03-23T04:37:40;11.90;72.30
12309;DHT22;6217;48.150;17.142;2024-03-23T04:41:48;11.80;72.30
12309;DHT22;6217;48.150;17.142;2024-03-23T04:45:54;11.80;72.30
12309;DHT22;6217;48.150;17.142;2024-03-23T04:50:00;11.80;72.50
12309;DHT22;6217;48.150;17.142;2024-03-23T04:54:07;11.80;72.70
12309;DHT22;6217;48.150;17.142;2024-03-23T04:58:13;11.80;72.70
12309;DHT22;6217;48.150;17.142;2024-03-23T05:02:19;11.90;72.60
12309;DHT22;6217;48.150;17.142;2024-03-23T05:06:25;11.90;72.40
12309;DHT22;6217;48.150;17.142;2024-03-23T05:10:31;11.90;72.60
12309;DHT22;6217;48.150;17.142;2024-03-23T05:14:38;11.90;72.60
12309;DHT22;6217;48.150;17.142;2024-03-23T05:18:44;11.90;73.40
12309;DHT22;6217;48.150;17.142;2024-03-23T05:22:50;11.90;72.70
12309;DHT22;6217;48.150;17.142;2024-03-23T05:26:56;11.90;72.80
12309;DHT22;6217;48.150;17.142;2024-03-23T05:31:04;11.90;73.00
12309;DHT22;6217;48.150;17.142;2024-03-23T05:35:10;11.90;73.10
12309;DHT22;6217;48.150;17.142;2024-03-23T05:39:17;11.90;73.40
12309;DHT22;6217;48.150;17.142;2024-03-23T05:43:23;11.90;73.50
12309;DHT22;6217;48.150;17.142;2024-03-23T05:47:29;12.00;73.30
12309;DHT22;6217;48.150;17.142;2024-03-23T05:51:35;12.10;73.10
12309;DHT22;6217;48.150;17.142;2024-03-23T05:55:41;12.30;72.80
12309;DHT22;6217;48.150;17.142;2024-03-23T05:59:47;12.40;72.60
12309;DHT22;6217;48.150;17.142;2024-03-23T06:03:53;12.50;72.50
12309;DHT22;6217;48.150;17.142;2024-03-23T06:07:59;12.50;72.00
12309;DHT22;6217;48.150;17.142;2024-03-23T06:12:05;12.50;72.00
12309;DHT22;6217;48.150;17.142;2024-03-23T06:16:11;12.50;72.20
12309;DHT22;6217;48.150;17.142;2024-03-23T06:20:17;12.50;72.40
12309;DHT22;6217;48.150;17.142;2024-03-23T06:24:23;12.60;72.30
12309;DHT22;6217;48.150;17.142;2024-03-23T06:28:30;12.60;72.60
12309;DHT22;6217;48.150;17.142;2024-03-23T06:32:35;12.70;72.50
12309;DHT22;6217;48.150;17.142;2024-03-23T06:36:41;13.00;72.30
12309;DHT22;6217;48.150;17.142;2024-03-23T06:40:47;13.10;72.00
12309;DHT22;6217;48.150;17.142;2024-03-23T06:44:56;13.30;71.70
12309;DHT22;6217;48.150;17.142;2024-03-23T06:49:02;13.70;71.00
12309;DHT22;6217;48.150;17.142;2024-03-23T06:53:08;14.00;70.10
12309;DHT22;6217;48.150;17.142;2024-03-23T06:57:14;14.10;69.90
12309;DHT22;6217;48.150;17.142;2024-03-23T07:01:20;14.00;69.40
12309;DHT22;6217;48.150;17.142;2024-03-23T07:05:26;14.20;69.60
12309;DHT22;6217;48.150;17.142;2024-03-23T07:09:32;14.60;68.30
12309;DHT22;6217;48.150;17.142;2024-03-23T07:13:38;14.80;67.20
12309;DHT22;6217;48.150;17.142;2024-03-23T07:17:47;15.10;66.90
12309;DHT22;6217;48.150;17.142;2024-03-23T07:21:53;15.10;66.50
12309;DHT22;6217;48.150;17.142;2024-03-23T07:26:00;15.20;66.30
12309;DHT22;6217;48.150;17.142;2024-03-23T07:30:07;15.00;66.70
12309;DHT22;6217;48.150;17.142;2024-03-23T07:34:14;14.90;67.10
12309;DHT22;6217;48.150;17.142;2024-03-23T07:38:20;14.70;67.50
12309;DHT22;6217;48.150;17.142;2024-03-23T07:42:26;14.80;67.70
12309;DHT22;6217;48.150;17.142;2024-03-23T07:46:32;14.80;67.60
12309;DHT22;6217;48.150;17.142;2024-03-23T07:50:38;14.80;67.70
12309;DHT22;6217;48.150;17.142;2024-03-23T07:54:43;14.80;67.40
12309;DHT22;6217;48.150;17.142;2024-03-23T07:58:49;14.80;67.40
12309;DHT22;6217;48.150;17.142;2024-03-23T08:02:55;15.10;66.90
12309;DHT22;6217;48.150;17.142;2024-03-23T08:07:01;15.10;66.80
12309;DHT22;6217;48.150;17.142;2024-03-23T08:11:07;15.20;66.60
12309;DHT22;6217;48.150;17.142;2024-03-23T08:15:13;15.20;66.60
12309;DHT22;6217;48.150;17.142;2024-03-23T08:19:19;15.10;66.80
12309;DHT22;6217;48.150;17.142;2024-03-23T08:23:27;15.10;67.10
12309;DHT22;6217;48.150;17.142;2024-03-23T08:27:33;15.20;67.30
12309;DHT22;6217;48.150;17.142;2024-03-23T08:31:39;15.60;66.60
12309;DHT22;6217;48.150;17.142;2024-03-23T08:35:54;15.90;66.30
12309;DHT22;6217;48.150;17.142;2024-03-23T08:40:01;16.30;65.30
12309;DHT22;6217;48.150;17.142;2024-03-23T08:44:08;17.00;64.40
12309;DHT22;6217;48.150;17.142;2024-03-23T08:48:14;17.20;63.70
12309;DHT22;6217;48.150;17.142;2024-03-23T08:52:20;17.20;63.40
12309;DHT22;6217;48.150;17.142;2024-03-23T08:56:28;16.90;63.60
12309;DHT22;6217;48.150;17.142;2024-03-23T09:00:34;16.60;63.90
12309;DHT22;6217;48.150;17.142;2024-03-23T09:04:40;16.30;64.10
12309;DHT22;6217;48.150;17.142;2024-03-23T09:08:46;16.10;64.80
12309;DHT22;6217;48.150;17.142;2024-03-23T09:12:52;16.30;65.00
12309;DHT22;6217;48.150;17.142;2024-03-23T09:16:58;16.40;64.70
12309;DHT22;6217;48.150;17.142;2024-03-23T09:21:06;16.30;64.80
12309;DHT22;6217;48.150;17.142;2024-03-23T09:25:17;16.30;65.00
12309;DHT22;6217;48.150;17.142;2024-03-23T09:29:22;16.50;65.30
12309;DHT22;6217;48.150;17.142;2024-03-23T09:33:28;16.70;64.60
12309;DHT22;6217;48.150;17.142;2024-03-23T09:37:35;16.70;64.30
12309;DHT22;6217;48.150;17.142;2024-03-23T09:41:41;16.80;64.20
12309;DHT22;6217;48.150;17.142;2024-03-23T09:45:47;16.90;64.10
12309;DHT22;6217;48.150;17.142;2024-03-23T09:49:54;16.90;63.80
12309;DHT22;6217;48.150;17.142;2024-03-23T09:54:00;16.80;64.00
12309;DHT22;6217;48.150;17.142;2024-03-23T09:58:06;16.90;64.60
12309;DHT22;6217;48.150;17.142;2024-03-23T10:02:13;17.00;64.30
12309;DHT22;6217;48.150;17.142;2024-03-23T10:06:22;17.30;64.00
12309;DHT22;6217;48.150;17.142;2024-03-23T10:10:31;17.60;63.80
12309;DHT22;6217;48.150;17.142;2024-03-23T10:14:37;17.70;63.00
12309;DHT22;6217;48.150;17.142;2024-03-23T10:18:43;17.60;62.80
12309;DHT22;6217;48.150;17.142;2024-03-23T10:22:50;17.80;63.10
12309;DHT22;6217;48.150;17.142;2024-03-23T10:26:57;17.80;62.70
12309;DHT22;6217;48.150;17.142;2024-03-23T10:31:11;18.00;62.60
12309;DHT22;6217;48.150;17.142;2024-03-23T10:35:20;18.10;62.00
12309;DHT22;6217;48.150;17.142;2024-03-23T10:39:28;18.40;61.60
12309;DHT22;6217;48.150;17.142;2024-03-23T10:43:37;18.60;61.20
12309;DHT22;6217;48.150;17.142;2024-03-23T10:47:43;18.70;60.60
12309;DHT22;6217;48.150;17.142;2024-03-23T10:51:49;19.20;60.20
12309;DHT22;6217;48.150;17.142;2024-03-23T10:55:55;19.40;59.30
12309;DHT22;6217;48.150;17.142;2024-03-23T11:00:05;19.60;58.80
12309;DHT22;6217;48.150;17.142;2024-03-23T11:04:38;19.70;58.50
12309;DHT22;6217;48.150;17.142;2024-03-23T11:08:44;20.00;57.80
12309;DHT22;6217;48.150;17.142;2024-03-23T11:12:51;20.00;57.70
12309;DHT22;6217;48.150;17.142;2024-03-23T11:17:10;19.90;57.60
12309;DHT22;6217;48.150;17.142;2024-03-23T11:21:51;19.80;57.50
12309;DHT22;6217;48.150;17.142;2024-03-23T11:25:59;19.70;57.50
12309;DHT22;6217;48.150;17.142;2024-03-23T11:30:24;19.70;57.80
12309;DHT22;6217;48.150;17.142;2024-03-23T11:34:34;19.80;57.50
12309;DHT22;6217;48.150;17.142;2024-03-23T11:38:41;19.90;57.50
12309;DHT22;6217;48.150;17.142;2024-03-23T11:42:55;20.00;57.30
12309;DHT22;6217;48.150;17.142;2024-03-23T11:47:08;20.00;57.20
12309;DHT22;6217;48.150;17.142;2024-03-23T11:51:17;19.90;57.40
12309;DHT22;6217;48.150;17.142;2024-03-23T11:55:23;19.80;57.40
12309;DHT22;6217;48.150;17.142;2024-03-23T11:59:40;19.70;57.70
12309;DHT22;6217;48.150;17.142;2024-03-23T12:03:46;19.60;57.90
12309;DHT22;6217;48.150;17.142;2024-03-23T12:07:52;19.70;58.20
12309;DHT22;6217;48.150;17.142;2024-03-23T12:16:24;19.90;58.20
12309;DHT22;6217;48.150;17.142;2024-03-23T12:20:33;19.90;58.10
12309;DHT22;6217;48.150;17.142;2024-03-23T12:24:39;19.90;58.10
12309;DHT22;6217;48.150;17.142;2024-03-23T12:28:50;19.90;58.20
12309;DHT22;6217;48.150;17.142;2024-03-23T12:32:56;19.90;58.20
12309;DHT22;6217;48.150;17.142;2024-03-23T12:37:02;19.90;58.10
12309;DHT22;6217;48.150;17.142;2024-03-23T12:41:08;20.00;58.10
12309;DHT22;6217;48.150;17.142;2024-03-23T12:45:15;20.00;57.90
12309;DHT22;6217;48.150;17.142;2024-03-23T12:49:21;20.00;58.10
12309;DHT22;6217;48.150;17.142;2024-03-23T12:53:28;20.00;58.00
12309;DHT22;6217;48.150;17.142;2024-03-23T12:57:34;20.00;57.80
12309;DHT22;6217;48.150;17.142;2024-03-23T13:01:40;20.00;57.40
12309;DHT22;6217;48.150;17.142;2024-03-23T13:05:52;20.10;57.10
12309;DHT22;6217;48.150;17.142;2024-03-23T13:09:58;20.10;56.70
12309;DHT22;6217;48.150;17.142;2024-03-23T13:14:03;20.20;56.40
12309;DHT22;6217;48.150;17.142;2024-03-23T13:18:09;20.40;56.00
12309;DHT22;6217;48.150;17.142;2024-03-23T13:22:15;20.50;55.60
12309;DHT22;6217;48.150;17.142;2024-03-23T13:26:21;20.60;55.30
12309;DHT22;6217;48.150;17.142;2024-03-23T13:30:27;20.60;55.10
12309;DHT22;6217;48.150;17.142;2024-03-23T13:34:34;20.70;55.00
12309;DHT22;6217;48.150;17.142;2024-03-23T13:38:40;20.70;54.70
12309;DHT22;6217;48.150;17.142;2024-03-23T13:42:46;20.80;54.50
12309;DHT22;6217;48.150;17.142;2024-03-23T13:46:52;20.90;54.40
12309;DHT22;6217;48.150;17.142;2024-03-23T13:51:03;21.00;54.00
12309;DHT22;6217;48.150;17.142;2024-03-23T13:55:09;21.30;53.60
12309;DHT22;6217;48.150;17.142;2024-03-23T13:59:18;21.50;53.30
12309;DHT22;6217;48.150;17.142;2024-03-23T14:03:24;21.50;52.70
12309;DHT22;6217;48.150;17.142;2024-03-23T14:07:30;21.40;52.60
12309;DHT22;6217;48.150;17.142;2024-03-23T14:11:36;21.00;52.50
12309;DHT22;6217;48.150;17.142;2024-03-23T14:15:53;20.10;54.40
12309;DHT22;6217;48.150;17.142;2024-03-23T14:20:00;19.30;56.40
12309;DHT22;6217;48.150;17.142;2024-03-23T14:24:07;18.60;57.30
12309;DHT22;6217;48.150;17.142;2024-03-23T14:28:14;18.20;57.80
12309;DHT22;6217;48.150;17.142;2024-03-23T14:32:21;17.70;58.10
12309;DHT22;6217;48.150;17.142;2024-03-23T14:36:27;17.40;58.40
12309;DHT22;6217;48.150;17.142;2024-03-23T14:40:33;17.00;58.70
12309;DHT22;6217;48.150;17.142;2024-03-23T14:44:39;16.60;59.40
12309;DHT22;6217;48.150;17.142;2024-03-23T14:48:46;16.40;59.60
12309;DHT22;6217;48.150;17.142;2024-03-23T14:52:52;16.20;59.70
12309;DHT22;6217;48.150;17.142;2024-03-23T14:56:58;16.10;59.90
12309;DHT22;6217;48.150;17.142;2024-03-23T15:01:05;15.90;60.10
12309;DHT22;6217;48.150;17.142;2024-03-23T15:05:14;15.70;61.00
12309;DHT22;6217;48.150;17.142;2024-03-23T15:09:20;15.50;62.20
12309;DHT22;6217;48.150;17.142;2024-03-23T15:13:26;15.40;63.30
12309;DHT22;6217;48.150;17.142;2024-03-23T15:17:32;15.30;63.70
12309;DHT22;6217;48.150;17.142;2024-03-23T15:21:40;15.10;64.90
12309;DHT22;6217;48.150;17.142;2024-03-23T15:25:57;14.90;65.80
12309;DHT22;6217;48.150;17.142;2024-03-23T15:30:05;14.60;66.70
12309;DHT22;6217;48.150;17.142;2024-03-23T15:34:12;14.40;67.30
12309;DHT22;6217;48.150;17.142;2024-03-23T15:38:18;14.20;68.50
12309;DHT22;6217;48.150;17.142;2024-03-23T15:42:24;14.00;69.70
12309;DHT22;6217;48.150;17.142;2024-03-23T15:46:30;13.80;70.70
12309;DHT22;6217;48.150;17.142;2024-03-23T15:50:36;13.60;72.00
12309;DHT22;6217;48.150;17.142;2024-03-23T15:54:43;13.40;73.80
12309;DHT22;6217;48.150;17.142;2024-03-23T15:58:49;13.20;74.90
12309;DHT22;6217;48.150;17.142;2024-03-23T16:02:55;12.60;74.70
12309;DHT22;6217;48.150;17.142;2024-03-23T16:07:01;12.10;75.00
12309;DHT22;6217;48.150;17.142;2024-03-23T16:11:07;11.60;75.40
12309;DHT22;6217;48.150;17.142;2024-03-23T16:15:16;11.20;75.90
12309;DHT22;6217;48.150;17.142;2024-03-23T16:19:22;11.00;76.30
12309;DHT22;6217;48.150;17.142;2024-03-23T16:23:28;10.90;76.70
12309;DHT22;6217;48.150;17.142;2024-03-23T16:27:34;10.70;76.80
12309;DHT22;6217;48.150;17.142;2024-03-23T16:31:40;10.70;76.80
12309;DHT22;6217;48.150;17.142;2024-03-23T16:35:55;10.80;76.70
12309;DHT22;6217;48.150;17.142;2024-03-23T16:40:05;10.90;75.60
12309;DHT22;6217;48.150;17.142;2024-03-23T16:44:13;11.10;74.20
12309;DHT22;6217;48.150;17.142;2024-03-23T16:48:20;11.30;73.20
12309;DHT22;6217;48.150;17.142;2024-03-23T16:52:27;11.40;72.20
12309;DHT22;6217;48.150;17.142;2024-03-23T16:56:33;11.50;71.50
12309;DHT22;6217;48.150;17.142;2024-03-23T17:00:40;11.50;71.30
12309;DHT22;6217;48.150;17.142;2024-03-23T17:04:46;11.50;70.90
12309;DHT22;6217;48.150;17.142;2024-03-23T17:08:52;11.40;71.10
12309;DHT22;6217;48.150;17.142;2024-03-23T17:12:58;11.40;71.30
12309;DHT22;6217;48.150;17.142;2024-03-23T17:17:05;11.40;71.20
12309;DHT22;6217;48.150;17.142;2024-03-23T17:21:12;11.40;71.00
12309;DHT22;6217;48.150;17.142;2024-03-23T17:25:19;11.40;70.90
12309;DHT22;6217;48.150;17.142;2024-03-23T17:29:25;11.40;71.00
12309;DHT22;6217;48.150;17.142;2024-03-23T17:33:31;11.50;71.10
12309;DHT22;6217;48.150;17.142;2024-03-23T17:37:39;11.40;71.60
12309;DHT22;6217;48.150;17.142;2024-03-23T17:41:45;11.30;72.20
12309;DHT22;6217;48.150;17.142;2024-03-23T17:45:51;11.30;72.20
12309;DHT22;6217;48.150;17.142;2024-03-23T17:49:57;11.40;71.60
12309;DHT22;6217;48.150;17.142;2024-03-23T17:54:03;11.50;71.00
12309;DHT22;6217;48.150;17.142;2024-03-23T17:58:09;11.40;70.90
12309;DHT22;6217;48.150;17.142;2024-03-23T18:02:16;11.40;70.90
12309;DHT22;6217;48.150;17.142;2024-03-23T18:06:22;11.50;71.00
12309;DHT22;6217;48.150;17.142;2024-03-23T18:10:28;11.50;71.10
12309;DHT22;6217;48.150;17.142;2024-03-23T18:14:35;11.50;71.50
12309;DHT22;6217;48.150;17.142;2024-03-23T18:18:41;11.50;71.50
12309;DHT22;6217;48.150;17.142;2024-03-23T18:22:47;11.50;71.50
12309;DHT22;6217;48.150;17.142;2024-03-23T18:26:53;11.50;71.30
12309;DHT22;6217;48.150;17.142;2024-03-23T18:31:01;11.60;71.20
12309;DHT22;6217;48.150;17.142;2024-03-23T18:35:07;11.70;70.80
12309;DHT22;6217;48.150;17.142;2024-03-23T18:39:13;11.70;70.50
12309;DHT22;6217;48.150;17.142;2024-03-23T18:43:19;11.70;70.40
12309;DHT22;6217;48.150;17.142;2024-03-23T18:47:25;11.70;70.40
12309;DHT22;6217;48.150;17.142;2024-03-23T18:51:31;11.70;70.40
12309;DHT22;6217;48.150;17.142;2024-03-23T18:55:38;11.70;70.50
12309;DHT22;6217;48.150;17.142;2024-03-23T18:59:44;11.70;70.50
12309;DHT22;6217;48.150;17.142;2024-03-23T19:03:50;11.70;70.60
12309;DHT22;6217;48.150;17.142;2024-03-23T19:07:56;11.60;70.50
12309;DHT22;6217;48.150;17.142;2024-03-23T19:12:02;11.60;70.90
12309;DHT22;6217;48.150;17.142;2024-03-23T19:16:08;11.60;71.20
12309;DHT22;6217;48.150;17.142;2024-03-23T19:20:15;11.70;71.10
12309;DHT22;6217;48.150;17.142;2024-03-23T19:24:20;11.70;71.70
12309;DHT22;6217;48.150;17.142;2024-03-23T19:28:27;11.60;70.90
12309;DHT22;6217;48.150;17.142;2024-03-23T19:32:36;11.70;70.80
12309;DHT22;6217;48.150;17.142;2024-03-23T19:36:42;11.70;70.60
12309;DHT22;6217;48.150;17.142;2024-03-23T19:40:55;11.70;70.60
12309;DHT22;6217;48.150;17.142;2024-03-23T19:45:01;11.70;70.40
12309;DHT22;6217;48.150;17.142;2024-03-23T19:49:07;11.70;70.30
12309;DHT22;6217;48.150;17.142;2024-03-23T19:53:13;11.70;69.90
12309;DHT22;6217;48.150;17.142;2024-03-23T19:57:19;11.70;69.50
12309;DHT22;6217;48.150;17.142;2024-03-23T20:01:25;11.70;69.10
12309;DHT22;6217;48.150;17.142;2024-03-23T20:05:31;11.70;69.10
12309;DHT22;6217;48.150;17.142;2024-03-23T20:09:37;11.70;69.10
12309;DHT22;6217;48.150;17.142;2024-03-23T20:13:43;11.70;68.80
12309;DHT22;6217;48.150;17.142;2024-03-23T20:17:49;11.60;68.30
12309;DHT22;6217;48.150;17.142;2024-03-23T20:21:55;11.70;68.30
12309;DHT22;6217;48.150;17.142;2024-03-23T20:26:01;11.60;68.40
12309;DHT22;6217;48.150;17.142;2024-03-23T20:30:08;11.50;68.50
12309;DHT22;6217;48.150;17.142;2024-03-23T20:34:15;11.50;68.10
12309;DHT22;6217;48.150;17.142;2024-03-23T20:38:22;11.50;68.30
12309;DHT22;6217;48.150;17.142;2024-03-23T20:42:28;11.40;68.00
12309;DHT22;6217;48.150;17.142;2024-03-23T20:46:35;11.40;68.30
12309;DHT22;6217;48.150;17.142;2024-03-23T20:50:40;11.40;68.40
12309;DHT22;6217;48.150;17.142;2024-03-23T20:54:46;11.20;69.30
12309;DHT22;6217;48.150;17.142;2024-03-23T20:58:52;11.20;69.80
12309;DHT22;6217;48.150;17.142;2024-03-23T21:02:58;11.30;70.10
12309;DHT22;6217;48.150;17.142;2024-03-23T21:07:04;11.30;70.00
12309;DHT22;6217;48.150;17.142;2024-03-23T21:11:10;11.30;70.10
12309;DHT22;6217;48.150;17.142;2024-03-23T21:15:16;11.30;70.30
12309;DHT22;6217;48.150;17.142;2024-03-23T21:19:22;11.30;70.50
12309;DHT22;6217;48.150;17.142;2024-03-23T21:23:29;11.30;70.80
12309;DHT22;6217;48.150;17.142;2024-03-23T21:27:40;11.30;71.00
12309;DHT22;6217;48.150;17.142;2024-03-23T21:31:46;11.20;71.30
12309;DHT22;6217;48.150;17.142;2024-03-23T21:35:55;11.10;71.40
12309;DHT22;6217;48.150;17.142;2024-03-23T21:40:02;11.00;71.60
12309;DHT22;6217;48.150;17.142;2024-03-23T21:44:08;10.90;71.70
12309;DHT22;6217;48.150;17.142;2024-03-23T21:48:15;10.90;71.70
12309;DHT22;6217;48.150;17.142;2024-03-23T21:52:21;10.80;71.70
12309;DHT22;6217;48.150;17.142;2024-03-23T21:56:27;10.80;71.80
12309;DHT22;6217;48.150;17.142;2024-03-23T22:00:33;10.80;71.50
12309;DHT22;6217;48.150;17.142;2024-03-23T22:04:39;10.80;71.40
12309;DHT22;6217;48.150;17.142;2024-03-23T22:08:45;10.80;71.00
12309;DHT22;6217;48.150;17.142;2024-03-23T22:12:52;10.70;71.20
12309;DHT22;6217;48.150;17.142;2024-03-23T22:16:58;10.60;71.30
12309;DHT22;6217;48.150;17.142;2024-03-23T22:21:05;10.60;71.40
12309;DHT22;6217;48.150;17.142;2024-03-23T22:25:11;10.50;71.40
12309;DHT22;6217;48.150;17.142;2024-03-23T22:29:17;10.40;71.70
12309;DHT22;6217;48.150;17.142;2024-03-23T22:33:23;10.30;72.40
12309;DHT22;6217;48.150;17.142;2024-03-23T22:37:32;10.20;72.70
12309;DHT22;6217;48.150;17.142;2024-03-23T22:41:38;10.20;72.90
12309;DHT22;6217;48.150;17.142;2024-03-23T22:45:44;10.10;72.70
12309;DHT22;6217;48.150;17.142;2024-03-23T22:49:49;10.10;72.70
12309;DHT22;6217;48.150;17.142;2024-03-23T22:53:55;9.90;72.90
12309;DHT22;6217;48.150;17.142;2024-03-23T22:58:01;9.80;73.00
12309;DHT22;6217;48.150;17.142;2024-03-23T23:02:08;9.70;73.70
12309;DHT22;6217;48.150;17.142;2024-03-23T23:06:14;9.60;73.30
12309;DHT22;6217;48.150;17.142;2024-03-23T23:10:20;9.50;73.50
12309;DHT22;6217;48.150;17.142;2024-03-23T23:14:26;9.40;73.50
12309;DHT22;6217;48.150;17.142;2024-03-23T23:18:32;9.30;73.40
12309;DHT22;6217;48.150;17.142;2024-03-23T23:22:37;9.30;73.70
12309;DHT22;6217;48.150;17.142;2024-03-23T23:26:44;9.20;73.80
12309;DHT22;6217;48.150;17.142;2024-03-23T23:31:00;9.20;73.80
12309;DHT22;6217;48.150;17.142;2024-03-23T23:35:09;9.20;73.60
12309;DHT22;6217;48.150;17.142;2024-03-23T23:39:15;9.20;73.60
12309;DHT22;6217;48.150;17.142;2024-03-23T23:43:22;9.20;73.60
12309;DHT22;6217;48.150;17.142;2024-03-23T23:47:28;9.20;73.60
12309;DHT22;6217;48.150;17.142;2024-03-23T23:51:34;9.20;73.60
12309;DHT22;6217;48.150;17.142;2024-03-23T23:55:39;9.20;73.50
12309;DHT22;6217;48.150;17.142;2024-03-23T23:59:46;9.10;73.60
